sensor_id;sensor_type;location;lat;lon;timestamp;P1;durP1;ratioP1;P2;durP2;ratioP2
17496;SDS011;62150;43.582;1.456;2023-04-01T06:21:10;15.18;;;2.95;;
17496;SDS011;62150;43.582;1.456;2023-04-01T06:24:03;10.57;;;2.70;;
17496;SDS011;62150;43.582;1.456;2023-04-01T06:26:44;12.90;;;3.07;;
17496;SDS011;62150;43.582;1.456;2023-04-01T06:29:23;13.57;;;2.87;;
17496;SDS011;62150;43.582;1.456;2023-04-01T06:32:22;11.73;;;3.00;;
17496;SDS011;62150;43.582;1.456;2023-04-01T06:35:17;16.30;;;3.60;;
17496;SDS011;62150;43.582;1.456;2023-04-01T06:38:12;13.60;;;2.87;;
17496;SDS011;62150;43.582;1.456;2023-04-01T06:41:08;16.13;;;2.70;;
17496;SDS011;62150;43.582;1.456;2023-04-01T06:43:57;12.83;;;2.80;;
17496;SDS011;62150;43.582;1.456;2023-04-01T06:46:35;12.40;;;2.90;;
17496;SDS011;62150;43.582;1.456;2023-04-01T06:49:16;12.90;;;2.80;;
17496;SDS011;62150;43.582;1.456;2023-04-01T06:51:57;10.73;;;2.77;;
17496;SDS011;62150;43.582;1.456;2023-04-01T06:54:35;14.27;;;3.43;;
17496;SDS011;62150;43.582;1.456;2023-04-01T06:57:10;11.20;;;3.10;;
17496;SDS011;62150;43.582;1.456;2023-04-01T06:59:46;13.40;;;2.73;;
17496;SDS011;62150;43.582;1.456;2023-04-01T07:02:18;13.37;;;3.17;;
17496;SDS011;62150;43.582;1.456;2023-04-01T07:04:51;13.47;;;3.60;;
17496;SDS011;62150;43.582;1.456;2023-04-01T07:07:24;11.80;;;2.67;;
17496;SDS011;62150;43.582;1.456;2023-04-01T07:09:59;12.90;;;2.87;;
17496;SDS011;62150;43.582;1.456;2023-04-01T07:12:33;11.70;;;3.07;;
17496;SDS011;62150;43.582;1.456;2023-04-01T07:15:11;13.00;;;2.97;;
17496;SDS011;62150;43.582;1.456;2023-04-01T07:17:44;12.23;;;2.80;;
17496;SDS011;62150;43.582;1.456;2023-04-01T07:20:17;9.80;;;2.53;;
17496;SDS011;62150;43.582;1.456;2023-04-01T07:22:51;13.30;;;2.93;;
17496;SDS011;62150;43.582;1.456;2023-04-01T07:25:24;14.93;;;3.83;;
17496;SDS011;62150;43.582;1.456;2023-04-01T07:27:58;14.33;;;2.90;;
17496;SDS011;62150;43.582;1.456;2023-04-01T07:30:33;12.60;;;3.07;;
17496;SDS011;62150;43.582;1.456;2023-04-01T07:33:15;13.53;;;2.80;;
17496;SDS011;62150;43.582;1.456;2023-04-01T07:35:49;11.57;;;2.93;;
17496;SDS011;62150;43.582;1.456;2023-04-01T07:38:22;11.87;;;2.73;;
17496;SDS011;62150;43.582;1.456;2023-04-01T07:41:00;14.03;;;2.83;;
17496;SDS011;62150;43.582;1.456;2023-04-01T07:43:37;13.97;;;2.87;;
17496;SDS011;62150;43.582;1.456;2023-04-01T07:46:14;11.87;;;2.97;;
17496;SDS011;62150;43.582;1.456;2023-04-01T07:48:52;12.17;;;2.67;;
17496;SDS011;62150;43.582;1.456;2023-04-01T07:51:24;10.07;;;2.80;;
17496;SDS011;62150;43.582;1.456;2023-04-01T07:54:00;13.53;;;2.70;;
17496;SDS011;62150;43.582;1.456;2023-04-01T07:56:34;11.07;;;2.83;;
17496;SDS011;62150;43.582;1.456;2023-04-01T07:59:11;11.60;;;2.50;;
17496;SDS011;62150;43.582;1.456;2023-04-01T08:01:51;13.40;;;3.03;;
17496;SDS011;62150;43.582;1.456;2023-04-01T08:04:33;14.00;;;3.07;;
17496;SDS011;62150;43.582;1.456;2023-04-01T08:07:12;13.37;;;2.70;;
17496;SDS011;62150;43.582;1.456;2023-04-01T08:09:44;9.77;;;2.67;;
17496;SDS011;62150;43.582;1.456;2023-04-01T08:12:24;15.40;;;3.47;;
17496;SDS011;62150;43.582;1.456;2023-04-01T08:15:07;9.20;;;2.70;;
17496;SDS011;62150;43.582;1.456;2023-04-01T08:17:43;13.87;;;3.23;;
17496;SDS011;62150;43.582;1.456;2023-04-01T08:20:21;14.60;;;3.00;;
17496;SDS011;62150;43.582;1.456;2023-04-01T08:22:57;12.40;;;3.00;;
17496;SDS011;62150;43.582;1.456;2023-04-01T08:25:35;16.40;;;3.90;;
17496;SDS011;62150;43.582;1.456;2023-04-01T08:28:11;13.47;;;2.53;;
17496;SDS011;62150;43.582;1.456;2023-04-01T08:30:44;14.43;;;3.27;;
17496;SDS011;62150;43.582;1.456;2023-04-01T08:33:16;12.47;;;2.87;;
17496;SDS011;62150;43.582;1.456;2023-04-01T08:35:50;9.23;;;2.47;;
17496;SDS011;62150;43.582;1.456;2023-04-01T08:38:22;16.83;;;3.00;;
17496;SDS011;62150;43.582;1.456;2023-04-01T08:40:59;14.33;;;3.60;;
17496;SDS011;62150;43.582;1.456;2023-04-01T08:43:49;14.63;;;2.70;;
17496;SDS011;62150;43.582;1.456;2023-04-01T08:49:32;13.27;;;2.50;;
17496;SDS011;62150;43.582;1.456;2023-04-01T08:52:33;12.47;;;2.97;;
17496;SDS011;62150;43.582;1.456;2023-04-01T08:55:04;14.17;;;3.30;;
17496;SDS011;62150;43.582;1.456;2023-04-01T08:57:56;15.00;;;3.03;;
17496;SDS011;62150;43.582;1.456;2023-04-01T09:00:40;10.20;;;2.27;;
17496;SDS011;62150;43.582;1.456;2023-04-01T09:03:15;14.80;;;2.97;;
17496;SDS011;62150;43.582;1.456;2023-04-01T09:11:58;9.63;;;2.30;;
17496;SDS011;62150;43.582;1.456;2023-04-01T09:14:58;11.93;;;2.30;;
17496;SDS011;62150;43.582;1.456;2023-04-01T09:17:51;9.60;;;2.00;;
17496;SDS011;62150;43.582;1.456;2023-04-01T09:20:42;8.77;;;1.90;;
17496;SDS011;62150;43.582;1.456;2023-04-01T09:23:29;7.00;;;2.00;;
17496;SDS011;62150;43.582;1.456;2023-04-01T09:26:14;9.13;;;2.43;;
17496;SDS011;62150;43.582;1.456;2023-04-01T09:29:08;9.20;;;1.93;;
17496;SDS011;62150;43.582;1.456;2023-04-01T09:37:50;9.77;;;2.23;;
17496;SDS011;62150;43.582;1.456;2023-04-01T09:40:23;8.57;;;2.10;;
17496;SDS011;62150;43.582;1.456;2023-04-01T09:43:06;6.50;;;1.80;;
17496;SDS011;62150;43.582;1.456;2023-04-01T09:46:05;7.47;;;1.60;;
17496;SDS011;62150;43.582;1.456;2023-04-01T09:49:06;5.13;;;1.87;;
17496;SDS011;62150;43.582;1.456;2023-04-01T09:55:01;9.57;;;2.20;;
17496;SDS011;62150;43.582;1.456;2023-04-01T09:57:58;9.23;;;2.00;;
17496;SDS011;62150;43.582;1.456;2023-04-01T10:00:56;6.53;;;1.70;;
17496;SDS011;62150;43.582;1.456;2023-04-01T10:07:08;9.33;;;2.10;;
17496;SDS011;62150;43.582;1.456;2023-04-01T10:09:58;9.77;;;2.20;;
17496;SDS011;62150;43.582;1.456;2023-04-01T10:19:03;6.30;;;1.80;;
17496;SDS011;62150;43.582;1.456;2023-04-01T10:22:09;9.00;;;2.00;;
17496;SDS011;62150;43.582;1.456;2023-04-01T10:25:07;6.67;;;1.87;;
17496;SDS011;62150;43.582;1.456;2023-04-01T10:31:14;8.93;;;1.87;;
17496;SDS011;62150;43.582;1.456;2023-04-01T10:37:30;9.50;;;1.90;;
17496;SDS011;62150;43.582;1.456;2023-04-01T10:40:39;8.77;;;2.07;;
17496;SDS011;62150;43.582;1.456;2023-04-01T10:46:39;6.60;;;1.63;;
17496;SDS011;62150;43.582;1.456;2023-04-01T10:52:53;8.83;;;1.93;;
17496;SDS011;62150;43.582;1.456;2023-04-01T11:08:38;6.97;;;1.80;;
17496;SDS011;62150;43.582;1.456;2023-04-01T11:17:51;8.23;;;2.13;;
17496;SDS011;62150;43.582;1.456;2023-04-01T11:23:49;9.97;;;2.07;;
17496;SDS011;62150;43.582;1.456;2023-04-01T11:26:37;7.40;;;2.20;;
17496;SDS011;62150;43.582;1.456;2023-04-01T11:32:34;4.73;;;1.87;;
17496;SDS011;62150;43.582;1.456;2023-04-01T11:38:22;6.47;;;1.60;;
17496;SDS011;62150;43.582;1.456;2023-04-01T11:41:08;5.63;;;1.60;;
17496;SDS011;62150;43.582;1.456;2023-04-01T11:43:51;4.83;;;1.60;;
17496;SDS011;62150;43.582;1.456;2023-04-01T11:46:33;4.67;;;1.50;;
17496;SDS011;62150;43.582;1.456;2023-04-01T11:49:16;6.37;;;1.90;;
17496;SDS011;62150;43.582;1.456;2023-04-01T11:52:02;5.00;;;2.27;;
17496;SDS011;62150;43.582;1.456;2023-04-01T11:54:51;6.03;;;1.80;;
17496;SDS011;62150;43.582;1.456;2023-04-01T11:57:39;5.60;;;1.50;;
17496;SDS011;62150;43.582;1.456;2023-04-01T12:00:39;4.83;;;1.30;;
17496;SDS011;62150;43.582;1.456;2023-04-01T12:03:32;3.57;;;1.30;;
17496;SDS011;62150;43.582;1.456;2023-04-01T12:06:23;3.70;;;1.30;;
17496;SDS011;62150;43.582;1.456;2023-04-01T12:09:01;6.67;;;1.50;;
17496;SDS011;62150;43.582;1.456;2023-04-01T12:11:38;4.17;;;1.50;;
17496;SDS011;62150;43.582;1.456;2023-04-01T12:14:16;5.57;;;1.43;;
17496;SDS011;62150;43.582;1.456;2023-04-01T12:16:51;5.13;;;1.70;;
17496;SDS011;62150;43.582;1.456;2023-04-01T12:19:32;4.23;;;1.63;;
17496;SDS011;62150;43.582;1.456;2023-04-01T12:22:14;4.17;;;1.30;;
17496;SDS011;62150;43.582;1.456;2023-04-01T12:25:03;5.50;;;1.50;;
17496;SDS011;62150;43.582;1.456;2023-04-01T12:27:48;4.23;;;1.70;;
17496;SDS011;62150;43.582;1.456;2023-04-01T12:30:32;3.53;;;1.50;;
17496;SDS011;62150;43.582;1.456;2023-04-01T12:36:19;5.63;;;1.70;;
17496;SDS011;62150;43.582;1.456;2023-04-01T12:39:06;5.57;;;1.50;;
17496;SDS011;62150;43.582;1.456;2023-04-01T12:41:59;3.00;;;1.33;;
17496;SDS011;62150;43.582;1.456;2023-04-01T12:44:40;4.20;;;1.40;;
17496;SDS011;62150;43.582;1.456;2023-04-01T12:47:22;5.13;;;1.70;;
17496;SDS011;62150;43.582;1.456;2023-04-01T12:50:15;7.60;;;1.80;;
17496;SDS011;62150;43.582;1.456;2023-04-01T12:53:11;9.07;;;1.70;;
17496;SDS011;62150;43.582;1.456;2023-04-01T12:55:55;4.07;;;1.60;;
17496;SDS011;62150;43.582;1.456;2023-04-01T12:58:42;7.13;;;1.80;;
17496;SDS011;62150;43.582;1.456;2023-04-01T13:01:30;5.87;;;1.53;;
17496;SDS011;62150;43.582;1.456;2023-04-01T13:04:28;6.17;;;1.60;;
17496;SDS011;62150;43.582;1.456;2023-04-01T13:07:12;5.20;;;1.50;;
17496;SDS011;62150;43.582;1.456;2023-04-01T13:09:57;3.47;;;1.30;;
17496;SDS011;62150;43.582;1.456;2023-04-01T13:12:43;4.00;;;1.30;;
17496;SDS011;62150;43.582;1.456;2023-04-01T13:15:24;4.00;;;1.50;;
17496;SDS011;62150;43.582;1.456;2023-04-01T13:17:58;7.27;;;1.80;;
17496;SDS011;62150;43.582;1.456;2023-04-01T13:20:42;3.87;;;1.40;;
17496;SDS011;62150;43.582;1.456;2023-04-01T13:23:17;5.67;;;1.70;;
17496;SDS011;62150;43.582;1.456;2023-04-01T13:25:58;4.80;;;1.40;;
17496;SDS011;62150;43.582;1.456;2023-04-01T13:28:35;3.07;;;1.30;;
17496;SDS011;62150;43.582;1.456;2023-04-01T13:31:07;4.30;;;1.33;;
17496;SDS011;62150;43.582;1.456;2023-04-01T13:33:46;5.67;;;1.60;;
17496;SDS011;62150;43.582;1.456;2023-04-01T13:36:24;4.43;;;1.57;;
17496;SDS011;62150;43.582;1.456;2023-04-01T13:39:09;5.03;;;1.50;;
17496;SDS011;62150;43.582;1.456;2023-04-01T13:41:51;6.13;;;1.73;;
17496;SDS011;62150;43.582;1.456;2023-04-01T13:44:31;4.00;;;1.30;;
17496;SDS011;62150;43.582;1.456;2023-04-01T13:47:10;3.20;;;1.20;;
17496;SDS011;62150;43.582;1.456;2023-04-01T13:49:57;4.23;;;1.83;;
17496;SDS011;62150;43.582;1.456;2023-04-01T13:55:48;2.43;;;1.37;;
17496;SDS011;62150;43.582;1.456;2023-04-01T13:58:30;5.90;;;1.77;;
17496;SDS011;62150;43.582;1.456;2023-04-01T14:01:21;5.00;;;1.80;;
17496;SDS011;62150;43.582;1.456;2023-04-01T14:07:14;5.27;;;1.40;;
17496;SDS011;62150;43.582;1.456;2023-04-01T14:09:52;3.00;;;1.30;;
17496;SDS011;62150;43.582;1.456;2023-04-01T14:12:31;5.23;;;1.50;;
17496;SDS011;62150;43.582;1.456;2023-04-01T14:15:18;5.03;;;1.53;;
17496;SDS011;62150;43.582;1.456;2023-04-01T14:18:11;4.93;;;1.50;;
17496;SDS011;62150;43.582;1.456;2023-04-01T14:20:49;5.07;;;1.53;;
17496;SDS011;62150;43.582;1.456;2023-04-01T14:23:35;4.97;;;1.50;;
17496;SDS011;62150;43.582;1.456;2023-04-01T14:26:16;4.77;;;1.50;;
17496;SDS011;62150;43.582;1.456;2023-04-01T14:29:23;6.23;;;1.67;;
17496;SDS011;62150;43.582;1.456;2023-04-01T14:32:02;5.83;;;1.60;;
17496;SDS011;62150;43.582;1.456;2023-04-01T14:34:43;4.30;;;1.60;;
17496;SDS011;62150;43.582;1.456;2023-04-01T14:37:27;4.87;;;1.80;;
17496;SDS011;62150;43.582;1.456;2023-04-01T14:46:30;3.70;;;1.80;;
17496;SDS011;62150;43.582;1.456;2023-04-01T14:49:17;4.50;;;1.47;;
17496;SDS011;62150;43.582;1.456;2023-04-01T14:51:51;5.07;;;1.63;;
17496;SDS011;62150;43.582;1.456;2023-04-01T14:54:21;4.97;;;1.53;;
17496;SDS011;62150;43.582;1.456;2023-04-01T14:57:01;3.43;;;1.60;;
17496;SDS011;62150;43.582;1.456;2023-04-01T14:59:39;5.97;;;1.90;;
17496;SDS011;62150;43.582;1.456;2023-04-01T15:02:14;3.60;;;1.37;;
17496;SDS011;62150;43.582;1.456;2023-04-01T15:05:05;6.20;;;1.73;;
17496;SDS011;62150;43.582;1.456;2023-04-01T15:07:51;2.97;;;1.30;;
17496;SDS011;62150;43.582;1.456;2023-04-01T15:10:43;5.17;;;1.70;;
17496;SDS011;62150;43.582;1.456;2023-04-01T15:13:26;3.23;;;1.30;;
17496;SDS011;62150;43.582;1.456;2023-04-01T15:16:11;1.90;;;1.40;;
17496;SDS011;62150;43.582;1.456;2023-04-01T15:18:52;2.87;;;1.33;;
17496;SDS011;62150;43.582;1.456;2023-04-01T15:21:31;3.70;;;1.40;;
17496;SDS011;62150;43.582;1.456;2023-04-01T15:24:34;2.60;;;1.20;;
17496;SDS011;62150;43.582;1.456;2023-04-01T15:27:16;3.53;;;1.23;;
17496;SDS011;62150;43.582;1.456;2023-04-01T15:33:07;4.63;;;1.30;;
17496;SDS011;62150;43.582;1.456;2023-04-01T15:35:56;3.00;;;1.40;;
17496;SDS011;62150;43.582;1.456;2023-04-01T15:38:33;6.80;;;1.50;;
17496;SDS011;62150;43.582;1.456;2023-04-01T15:41:10;4.23;;;1.50;;
17496;SDS011;62150;43.582;1.456;2023-04-01T15:43:41;4.97;;;1.30;;
17496;SDS011;62150;43.582;1.456;2023-04-01T15:49:12;3.83;;;1.40;;
17496;SDS011;62150;43.582;1.456;2023-04-01T15:51:55;2.77;;;1.50;;
17496;SDS011;62150;43.582;1.456;2023-04-01T15:54:38;4.47;;;1.30;;
17496;SDS011;62150;43.582;1.456;2023-04-01T15:57:39;2.67;;;1.13;;
17496;SDS011;62150;43.582;1.456;2023-04-01T16:00:24;3.50;;;1.40;;
17496;SDS011;62150;43.582;1.456;2023-04-01T16:05:59;4.00;;;1.30;;
17496;SDS011;62150;43.582;1.456;2023-04-01T16:08:50;5.07;;;2.00;;
17496;SDS011;62150;43.582;1.456;2023-04-01T16:11:37;6.47;;;2.60;;
17496;SDS011;62150;43.582;1.456;2023-04-01T16:14:18;4.63;;;1.77;;
17496;SDS011;62150;43.582;1.456;2023-04-01T16:16:58;3.50;;;1.80;;
17496;SDS011;62150;43.582;1.456;2023-04-01T16:19:41;4.73;;;1.80;;
17496;SDS011;62150;43.582;1.456;2023-04-01T16:22:20;5.60;;;1.77;;
17496;SDS011;62150;43.582;1.456;2023-04-01T16:24:53;2.43;;;1.60;;
17496;SDS011;62150;43.582;1.456;2023-04-01T16:27:29;5.60;;;1.90;;
17496;SDS011;62150;43.582;1.456;2023-04-01T16:30:19;4.93;;;1.80;;
17496;SDS011;62150;43.582;1.456;2023-04-01T16:32:59;4.50;;;1.60;;
17496;SDS011;62150;43.582;1.456;2023-04-01T16:35:32;6.10;;;1.70;;
17496;SDS011;62150;43.582;1.456;2023-04-01T16:38:10;4.80;;;1.80;;
17496;SDS011;62150;43.582;1.456;2023-04-01T16:40:44;5.07;;;2.03;;
17496;SDS011;62150;43.582;1.456;2023-04-01T16:43:24;7.07;;;2.00;;
17496;SDS011;62150;43.582;1.456;2023-04-01T16:46:07;5.80;;;1.93;;
17496;SDS011;62150;43.582;1.456;2023-04-01T16:49:22;4.80;;;1.80;;
17496;SDS011;62150;43.582;1.456;2023-04-01T16:51:55;5.07;;;1.60;;
17496;SDS011;62150;43.582;1.456;2023-04-01T16:54:40;5.67;;;1.83;;
17496;SDS011;62150;43.582;1.456;2023-04-01T16:57:16;3.10;;;1.50;;
17496;SDS011;62150;43.582;1.456;2023-04-01T16:59:51;4.93;;;2.00;;
17496;SDS011;62150;43.582;1.456;2023-04-01T17:02:27;3.83;;;1.70;;
17496;SDS011;62150;43.582;1.456;2023-04-01T17:05:00;4.30;;;1.63;;
17496;SDS011;62150;43.582;1.456;2023-04-01T17:07:35;6.33;;;1.70;;
17496;SDS011;62150;43.582;1.456;2023-04-01T17:10:14;4.67;;;1.53;;
17496;SDS011;62150;43.582;1.456;2023-04-01T17:13:03;4.97;;;1.50;;
17496;SDS011;62150;43.582;1.456;2023-04-01T17:15:46;5.97;;;1.63;;
17496;SDS011;62150;43.582;1.456;2023-04-01T17:18:31;2.13;;;1.60;;
17496;SDS011;62150;43.582;1.456;2023-04-01T17:21:12;5.20;;;1.70;;
17496;SDS011;62150;43.582;1.456;2023-04-01T17:23:44;6.27;;;1.60;;
17496;SDS011;62150;43.582;1.456;2023-04-01T17:26:19;6.73;;;1.97;;
17496;SDS011;62150;43.582;1.456;2023-04-01T17:28:53;5.93;;;2.07;;
17496;SDS011;62150;43.582;1.456;2023-04-01T17:31:34;6.37;;;2.20;;
17496;SDS011;62150;43.582;1.456;2023-04-01T17:34:27;3.20;;;1.60;;
17496;SDS011;62150;43.582;1.456;2023-04-01T17:37:20;7.30;;;1.90;;
17496;SDS011;62150;43.582;1.456;2023-04-01T17:40:12;2.13;;;1.73;;
17496;SDS011;62150;43.582;1.456;2023-04-01T17:42:52;6.73;;;2.20;;
17496;SDS011;62150;43.582;1.456;2023-04-01T17:45:28;4.73;;;1.63;;
17496;SDS011;62150;43.582;1.456;2023-04-01T17:48:05;3.87;;;1.60;;
17496;SDS011;62150;43.582;1.456;2023-04-01T17:50:49;7.43;;;1.87;;
17496;SDS011;62150;43.582;1.456;2023-04-01T17:53:32;6.35;;;1.95;;
17496;SDS011;62150;43.582;1.456;2023-04-01T17:56:08;6.20;;;1.97;;
17496;SDS011;62150;43.582;1.456;2023-04-01T17:58:48;6.40;;;1.70;;
17496;SDS011;62150;43.582;1.456;2023-04-01T18:01:26;3.57;;;1.80;;
17496;SDS011;62150;43.582;1.456;2023-04-01T18:04:23;3.87;;;1.60;;
17496;SDS011;62150;43.582;1.456;2023-04-01T18:07:12;4.27;;;1.80;;
17496;SDS011;62150;43.582;1.456;2023-04-01T18:10:07;4.33;;;2.00;;
17496;SDS011;62150;43.582;1.456;2023-04-01T18:12:53;5.13;;;1.57;;
17496;SDS011;62150;43.582;1.456;2023-04-01T18:15:42;4.20;;;1.60;;
17496;SDS011;62150;43.582;1.456;2023-04-01T18:18:26;6.30;;;2.00;;
17496;SDS011;62150;43.582;1.456;2023-04-01T18:21:06;5.20;;;1.80;;
17496;SDS011;62150;43.582;1.456;2023-04-01T18:23:43;7.00;;;2.03;;
17496;SDS011;62150;43.582;1.456;2023-04-01T18:26:19;6.03;;;1.70;;
17496;SDS011;62150;43.582;1.456;2023-04-01T18:28:49;5.23;;;1.90;;
17496;SDS011;62150;43.582;1.456;2023-04-01T18:31:23;5.43;;;2.00;;
17496;SDS011;62150;43.582;1.456;2023-04-01T18:34:00;5.63;;;2.00;;
17496;SDS011;62150;43.582;1.456;2023-04-01T18:36:37;4.87;;;2.30;;
17496;SDS011;62150;43.582;1.456;2023-04-01T18:39:12;5.43;;;2.20;;
17496;SDS011;62150;43.582;1.456;2023-04-01T18:41:49;6.57;;;2.07;;
17496;SDS011;62150;43.582;1.456;2023-04-01T18:44:34;8.70;;;2.23;;
17496;SDS011;62150;43.582;1.456;2023-04-01T18:47:15;4.77;;;1.90;;
17496;SDS011;62150;43.582;1.456;2023-04-01T18:49:52;5.53;;;2.17;;
17496;SDS011;62150;43.582;1.456;2023-04-01T18:52:25;4.97;;;2.10;;
17496;SDS011;62150;43.582;1.456;2023-04-01T18:57:59;4.93;;;2.00;;
17496;SDS011;62150;43.582;1.456;2023-04-01T19:01:05;4.23;;;1.60;;
17496;SDS011;62150;43.582;1.456;2023-04-01T19:03:41;4.23;;;1.70;;
17496;SDS011;62150;43.582;1.456;2023-04-01T19:06:17;5.43;;;1.93;;
17496;SDS011;62150;43.582;1.456;2023-04-01T19:08:49;6.47;;;2.10;;
17496;SDS011;62150;43.582;1.456;2023-04-01T19:11:25;4.60;;;1.67;;
17496;SDS011;62150;43.582;1.456;2023-04-01T19:14:01;4.43;;;1.90;;
17496;SDS011;62150;43.582;1.456;2023-04-01T19:16:43;4.90;;;1.83;;
17496;SDS011;62150;43.582;1.456;2023-04-01T19:19:30;5.50;;;2.00;;
17496;SDS011;62150;43.582;1.456;2023-04-01T19:22:13;5.37;;;1.80;;
17496;SDS011;62150;43.582;1.456;2023-04-01T19:25:00;4.70;;;1.80;;
17496;SDS011;62150;43.582;1.456;2023-04-01T19:27:44;5.93;;;1.70;;
17496;SDS011;62150;43.582;1.456;2023-04-01T19:30:25;4.93;;;1.80;;
17496;SDS011;62150;43.582;1.456;2023-04-01T19:33:18;5.90;;;2.10;;
17496;SDS011;62150;43.582;1.456;2023-04-01T19:35:58;5.20;;;1.77;;
17496;SDS011;62150;43.582;1.456;2023-04-01T19:38:36;4.50;;;1.80;;
17496;SDS011;62150;43.582;1.456;2023-04-01T19:41:11;5.47;;;1.80;;
17496;SDS011;62150;43.582;1.456;2023-04-01T19:43:52;5.30;;;1.93;;
17496;SDS011;62150;43.582;1.456;2023-04-01T19:46:32;3.87;;;1.60;;
17496;SDS011;62150;43.582;1.456;2023-04-01T19:49:06;3.83;;;1.80;;
17496;SDS011;62150;43.582;1.456;2023-04-01T19:51:55;3.23;;;1.70;;
17496;SDS011;62150;43.582;1.456;2023-04-01T19:54:34;6.17;;;1.90;;
17496;SDS011;62150;43.582;1.456;2023-04-01T19:57:11;3.63;;;1.70;;
17496;SDS011;62150;43.582;1.456;2023-04-01T19:59:50;5.17;;;1.70;;
17496;SDS011;62150;43.582;1.456;2023-04-01T20:08:16;6.67;;;2.10;;
17496;SDS011;62150;43.582;1.456;2023-04-01T20:10:55;5.30;;;1.80;;
17496;SDS011;62150;43.582;1.456;2023-04-01T20:13:35;5.37;;;1.90;;
17496;SDS011;62150;43.582;1.456;2023-04-01T20:16:12;5.47;;;2.10;;
17496;SDS011;62150;43.582;1.456;2023-04-01T20:18:43;5.67;;;1.90;;
17496;SDS011;62150;43.582;1.456;2023-04-01T20:21:18;5.30;;;2.20;;
17496;SDS011;62150;43.582;1.456;2023-04-01T20:23:56;6.47;;;2.00;;
17496;SDS011;62150;43.582;1.456;2023-04-01T20:26:29;7.53;;;1.90;;
17496;SDS011;62150;43.582;1.456;2023-04-01T20:29:04;5.97;;;1.90;;
17496;SDS011;62150;43.582;1.456;2023-04-01T20:31:43;4.53;;;1.60;;
17496;SDS011;62150;43.582;1.456;2023-04-01T20:37:27;7.03;;;2.00;;
17496;SDS011;62150;43.582;1.456;2023-04-01T20:43:09;6.43;;;2.10;;
17496;SDS011;62150;43.582;1.456;2023-04-01T20:45:59;8.83;;;2.10;;
17496;SDS011;62150;43.582;1.456;2023-04-01T20:48:37;8.63;;;2.03;;
17496;SDS011;62150;43.582;1.456;2023-04-01T20:51:12;5.23;;;2.10;;
17496;SDS011;62150;43.582;1.456;2023-04-01T20:53:43;5.23;;;2.00;;
17496;SDS011;62150;43.582;1.456;2023-04-01T21:02:15;5.93;;;1.90;;
17496;SDS011;62150;43.582;1.456;2023-04-01T21:05:00;6.70;;;1.90;;
17496;SDS011;62150;43.582;1.456;2023-04-01T21:07:50;6.00;;;1.90;;
17496;SDS011;62150;43.582;1.456;2023-04-01T21:10:26;7.17;;;1.90;;
17496;SDS011;62150;43.582;1.456;2023-04-01T21:13:09;5.10;;;1.90;;
17496;SDS011;62150;43.582;1.456;2023-04-01T21:15:47;6.53;;;1.87;;
17496;SDS011;62150;43.582;1.456;2023-04-01T21:21:29;6.97;;;1.90;;
17496;SDS011;62150;43.582;1.456;2023-04-01T21:27:26;7.67;;;2.00;;
17496;SDS011;62150;43.582;1.456;2023-04-01T21:30:15;5.30;;;1.77;;
17496;SDS011;62150;43.582;1.456;2023-04-01T21:32:59;7.27;;;1.80;;
17496;SDS011;62150;43.582;1.456;2023-04-01T21:35:36;4.77;;;1.80;;
17496;SDS011;62150;43.582;1.456;2023-04-01T21:38:17;7.57;;;1.97;;
17496;SDS011;62150;43.582;1.456;2023-04-01T21:41:08;6.07;;;1.83;;
17496;SDS011;62150;43.582;1.456;2023-04-01T21:43:54;7.87;;;2.17;;
17496;SDS011;62150;43.582;1.456;2023-04-01T21:46:41;5.90;;;1.73;;
17496;SDS011;62150;43.582;1.456;2023-04-01T21:49:43;6.73;;;1.90;;
17496;SDS011;62150;43.582;1.456;2023-04-01T21:52:42;5.53;;;1.93;;
17496;SDS011;62150;43.582;1.456;2023-04-01T21:58:44;4.87;;;1.97;;
17496;SDS011;62150;43.582;1.456;2023-04-01T22:01:39;7.73;;;2.07;;
17496;SDS011;62150;43.582;1.456;2023-04-01T22:04:45;6.83;;;1.90;;
17496;SDS011;62150;43.582;1.456;2023-04-01T22:07:20;5.20;;;1.90;;
